sensor_id;sensor_type;location;lat;lon;timestamp;P1;durP1;ratioP1;P2;durP2;ratioP2
66669;SDS011;53568;52.164;4.472;2022-09-23T00:00:38;12.65;;;12.65;;
66669;SDS011;53568;52.164;4.472;2022-09-23T00:03:05;12.77;;;12.77;;
66669;SDS011;53568;52.164;4.472;2022-09-23T00:05:30;13.14;;;13.14;;
66669;SDS011;53568;52.164;4.472;2022-09-23T00:07:56;13.36;;;13.36;;
66669;SDS011;53568;52.164;4.472;2022-09-23T00:10:23;13.55;;;13.55;;
66669;SDS011;53568;52.164;4.472;2022-09-23T00:12:50;13.35;;;13.35;;
66669;SDS011;53568;52.164;4.472;2022-09-23T00:15:16;13.96;;;13.96;;
66669;SDS011;53568;52.164;4.472;2022-09-23T00:17:42;14.24;;;14.24;;
66669;SDS011;53568;52.164;4.472;2022-09-23T00:20:08;14.15;;;14.15;;
66669;SDS011;53568;52.164;4.472;2022-09-23T00:22:35;13.80;;;13.80;;
66669;SDS011;53568;52.164;4.472;2022-09-23T00:25:05;13.49;;;13.49;;
66669;SDS011;53568;52.164;4.472;2022-09-23T00:27:33;13.41;;;13.41;;
66669;SDS011;53568;52.164;4.472;2022-09-23T00:29:59;13.09;;;13.09;;
66669;SDS011;53568;52.164;4.472;2022-09-23T00:32:25;13.26;;;13.26;;
66669;SDS011;53568;52.164;4.472;2022-09-23T00:34:51;13.61;;;13.61;;
66669;SDS011;53568;52.164;4.472;2022-09-23T00:37:17;13.49;;;13.49;;
66669;SDS011;53568;52.164;4.472;2022-09-23T00:39:43;13.74;;;13.74;;
66669;SDS011;53568;52.164;4.472;2022-09-23T00:42:17;14.14;;;14.14;;
66669;SDS011;53568;52.164;4.472;2022-09-23T00:44:52;14.71;;;14.71;;
66669;SDS011;53568;52.164;4.472;2022-09-23T00:50:42;14.22;;;14.22;;
66669;SDS011;53568;52.164;4.472;2022-09-23T00:52:46;14.07;;;14.07;;
66669;SDS011;53568;52.164;4.472;2022-09-23T00:55:15;13.83;;;13.83;;
66669;SDS011;53568;52.164;4.472;2022-09-23T00:57:48;14.02;;;14.02;;
66669;SDS011;53568;52.164;4.472;2022-09-23T01:00:14;13.98;;;13.98;;
66669;SDS011;53568;52.164;4.472;2022-09-23T01:02:39;14.04;;;14.04;;
66669;SDS011;53568;52.164;4.472;2022-09-23T01:05:06;14.50;;;14.50;;
66669;SDS011;53568;52.164;4.472;2022-09-23T01:07:32;13.93;;;13.93;;
66669;SDS011;53568;52.164;4.472;2022-09-23T01:09:58;14.17;;;14.17;;
66669;SDS011;53568;52.164;4.472;2022-09-23T01:12:34;13.78;;;13.78;;
66669;SDS011;53568;52.164;4.472;2022-09-23T01:23:36;14.40;;;14.40;;
66669;SDS011;53568;52.164;4.472;2022-09-23T01:29:29;14.60;;;14.60;;
66669;SDS011;53568;52.164;4.472;2022-09-23T01:37:45;14.59;;;14.59;;
66669;SDS011;53568;52.164;4.472;2022-09-23T01:40:22;14.52;;;14.52;;
66669;SDS011;53568;52.164;4.472;2022-09-23T01:43:23;14.25;;;14.25;;
66669;SDS011;53568;52.164;4.472;2022-09-23T01:46:02;14.47;;;14.47;;
66669;SDS011;53568;52.164;4.472;2022-09-23T01:48:44;14.59;;;14.59;;
66669;SDS011;53568;52.164;4.472;2022-09-23T01:51:24;14.91;;;14.91;;
66669;SDS011;53568;52.164;4.472;2022-09-23T01:56:48;14.77;;;14.77;;
66669;SDS011;53568;52.164;4.472;2022-09-23T01:59:24;14.42;;;14.42;;
66669;SDS011;53568;52.164;4.472;2022-09-23T02:04:37;14.37;;;14.37;;
66669;SDS011;53568;52.164;4.472;2022-09-23T02:07:19;14.14;;;14.14;;
66669;SDS011;53568;52.164;4.472;2022-09-23T02:10:02;13.61;;;13.61;;
66669;SDS011;53568;52.164;4.472;2022-09-23T02:12:48;13.88;;;13.88;;
66669;SDS011;53568;52.164;4.472;2022-09-23T02:15:23;13.68;;;13.68;;
66669;SDS011;53568;52.164;4.472;2022-09-23T02:18:00;13.41;;;13.41;;
66669;SDS011;53568;52.164;4.472;2022-09-23T02:20:49;13.56;;;13.56;;
66669;SDS011;53568;52.164;4.472;2022-09-23T02:23:40;13.68;;;13.68;;
66669;SDS011;53568;52.164;4.472;2022-09-23T02:26:18;13.63;;;13.63;;
66669;SDS011;53568;52.164;4.472;2022-09-23T02:29:00;14.00;;;14.00;;
66669;SDS011;53568;52.164;4.472;2022-09-23T02:31:38;13.98;;;13.98;;
66669;SDS011;53568;52.164;4.472;2022-09-23T02:34:24;14.09;;;14.09;;
66669;SDS011;53568;52.164;4.472;2022-09-23T02:45:44;14.33;;;14.33;;
66669;SDS011;53568;52.164;4.472;2022-09-23T02:48:24;14.01;;;14.01;;
66669;SDS011;53568;52.164;4.472;2022-09-23T02:50:58;14.03;;;14.03;;
66669;SDS011;53568;52.164;4.472;2022-09-23T02:53:26;14.04;;;14.04;;
66669;SDS011;53568;52.164;4.472;2022-09-23T02:55:53;14.11;;;14.11;;
66669;SDS011;53568;52.164;4.472;2022-09-23T02:58:18;13.66;;;13.66;;
66669;SDS011;53568;52.164;4.472;2022-09-23T03:06:02;13.61;;;13.61;;
66669;SDS011;53568;52.164;4.472;2022-09-23T03:08:56;13.78;;;13.78;;
66669;SDS011;53568;52.164;4.472;2022-09-23T03:11:30;14.51;;;14.51;;
66669;SDS011;53568;52.164;4.472;2022-09-23T03:17:00;13.79;;;13.79;;
66669;SDS011;53568;52.164;4.472;2022-09-23T03:19:35;14.23;;;14.23;;
66669;SDS011;53568;52.164;4.472;2022-09-23T03:22:12;13.79;;;13.79;;
66669;SDS011;53568;52.164;4.472;2022-09-23T03:24:45;13.92;;;13.92;;
66669;SDS011;53568;52.164;4.472;2022-09-23T03:27:15;13.33;;;13.33;;
66669;SDS011;53568;52.164;4.472;2022-09-23T03:29:48;12.93;;;12.93;;
66669;SDS011;53568;52.164;4.472;2022-09-23T03:32:19;12.91;;;12.91;;
66669;SDS011;53568;52.164;4.472;2022-09-23T03:34:49;12.55;;;12.55;;
66669;SDS011;53568;52.164;4.472;2022-09-23T03:40:03;12.70;;;12.70;;
66669;SDS011;53568;52.164;4.472;2022-09-23T03:42:37;12.17;;;12.17;;
66669;SDS011;53568;52.164;4.472;2022-09-23T03:45:05;12.64;;;12.64;;
66669;SDS011;53568;52.164;4.472;2022-09-23T03:47:37;12.40;;;12.40;;
66669;SDS011;53568;52.164;4.472;2022-09-23T03:50:04;11.77;;;11.77;;
66669;SDS011;53568;52.164;4.472;2022-09-23T03:52:30;12.75;;;12.75;;
66669;SDS011;53568;52.164;4.472;2022-09-23T03:54:56;13.80;;;13.75;;
66669;SDS011;53568;52.164;4.472;2022-09-23T03:57:22;13.51;;;13.48;;
66669;SDS011;53568;52.164;4.472;2022-09-23T03:59:49;12.78;;;12.76;;
66669;SDS011;53568;52.164;4.472;2022-09-23T04:02:15;14.77;;;14.72;;
66669;SDS011;53568;52.164;4.472;2022-09-23T04:04:42;13.38;;;13.38;;
66669;SDS011;53568;52.164;4.472;2022-09-23T04:07:09;12.42;;;12.42;;
66669;SDS011;53568;52.164;4.472;2022-09-23T04:09:36;12.23;;;12.23;;
66669;SDS011;53568;52.164;4.472;2022-09-23T04:12:02;12.14;;;12.14;;
66669;SDS011;53568;52.164;4.472;2022-09-23T04:14:29;11.87;;;11.87;;
66669;SDS011;53568;52.164;4.472;2022-09-23T04:16:55;12.34;;;12.34;;
66669;SDS011;53568;52.164;4.472;2022-09-23T04:19:21;12.59;;;12.59;;
66669;SDS011;53568;52.164;4.472;2022-09-23T04:21:47;12.19;;;12.19;;
66669;SDS011;53568;52.164;4.472;2022-09-23T04:24:13;12.17;;;12.17;;
66669;SDS011;53568;52.164;4.472;2022-09-23T04:26:39;12.60;;;12.60;;
66669;SDS011;53568;52.164;4.472;2022-09-23T04:29:06;12.35;;;12.35;;
66669;SDS011;53568;52.164;4.472;2022-09-23T04:31:32;11.79;;;11.79;;
66669;SDS011;53568;52.164;4.472;2022-09-23T04:33:58;12.32;;;12.32;;
66669;SDS011;53568;52.164;4.472;2022-09-23T04:36:24;12.15;;;12.15;;
66669;SDS011;53568;52.164;4.472;2022-09-23T04:38:50;11.93;;;11.93;;
66669;SDS011;53568;52.164;4.472;2022-09-23T04:41:16;12.11;;;12.10;;
66669;SDS011;53568;52.164;4.472;2022-09-23T04:43:43;11.64;;;11.64;;
66669;SDS011;53568;52.164;4.472;2022-09-23T04:46:11;12.15;;;12.15;;
66669;SDS011;53568;52.164;4.472;2022-09-23T04:48:38;11.80;;;11.80;;
66669;SDS011;53568;52.164;4.472;2022-09-23T04:51:17;12.01;;;12.01;;
66669;SDS011;53568;52.164;4.472;2022-09-23T04:53:45;11.89;;;11.89;;
66669;SDS011;53568;52.164;4.472;2022-09-23T04:56:15;11.56;;;11.56;;
66669;SDS011;53568;52.164;4.472;2022-09-23T04:58:41;11.69;;;11.69;;
66669;SDS011;53568;52.164;4.472;2022-09-23T05:03:38;12.16;;;12.16;;
66669;SDS011;53568;52.164;4.472;2022-09-23T05:06:05;12.13;;;12.13;;
66669;SDS011;53568;52.164;4.472;2022-09-23T05:08:32;11.44;;;11.44;;
66669;SDS011;53568;52.164;4.472;2022-09-23T05:10:59;11.74;;;11.74;;
66669;SDS011;53568;52.164;4.472;2022-09-23T05:13:29;12.09;;;12.09;;
66669;SDS011;53568;52.164;4.472;2022-09-23T05:15:56;11.72;;;11.72;;
66669;SDS011;53568;52.164;4.472;2022-09-23T05:18:31;12.13;;;12.13;;
66669;SDS011;53568;52.164;4.472;2022-09-23T05:20:58;12.03;;;12.03;;
66669;SDS011;53568;52.164;4.472;2022-09-23T05:23:23;12.00;;;12.00;;
66669;SDS011;53568;52.164;4.472;2022-09-23T05:25:54;11.94;;;11.94;;
66669;SDS011;53568;52.164;4.472;2022-09-23T05:28:23;12.36;;;12.36;;
66669;SDS011;53568;52.164;4.472;2022-09-23T05:30:50;12.14;;;12.14;;
66669;SDS011;53568;52.164;4.472;2022-09-23T05:33:15;12.34;;;12.34;;
66669;SDS011;53568;52.164;4.472;2022-09-23T05:35:47;12.35;;;12.35;;
66669;SDS011;53568;52.164;4.472;2022-09-23T05:38:14;11.81;;;11.81;;
66669;SDS011;53568;52.164;4.472;2022-09-23T05:40:41;11.72;;;11.72;;
66669;SDS011;53568;52.164;4.472;2022-09-23T05:43:06;11.98;;;11.98;;
66669;SDS011;53568;52.164;4.472;2022-09-23T05:45:32;12.37;;;12.37;;
66669;SDS011;53568;52.164;4.472;2022-09-23T05:47:57;12.47;;;12.47;;
66669;SDS011;53568;52.164;4.472;2022-09-23T05:50:23;12.15;;;12.15;;
66669;SDS011;53568;52.164;4.472;2022-09-23T05:52:48;12.58;;;12.58;;
66669;SDS011;53568;52.164;4.472;2022-09-23T05:55:14;12.03;;;12.03;;
66669;SDS011;53568;52.164;4.472;2022-09-23T05:57:40;11.95;;;11.95;;
66669;SDS011;53568;52.164;4.472;2022-09-23T06:00:05;12.92;;;12.92;;
66669;SDS011;53568;52.164;4.472;2022-09-23T06:02:31;12.73;;;12.73;;
66669;SDS011;53568;52.164;4.472;2022-09-23T06:04:57;13.03;;;13.03;;
66669;SDS011;53568;52.164;4.472;2022-09-23T06:07:22;12.29;;;12.29;;
66669;SDS011;53568;52.164;4.472;2022-09-23T06:09:48;12.36;;;12.36;;
66669;SDS011;53568;52.164;4.472;2022-09-23T06:12:14;12.27;;;12.27;;
66669;SDS011;53568;52.164;4.472;2022-09-23T06:14:40;12.20;;;12.20;;
66669;SDS011;53568;52.164;4.472;2022-09-23T06:17:05;12.80;;;12.80;;
66669;SDS011;53568;52.164;4.472;2022-09-23T06:19:31;12.77;;;12.77;;
66669;SDS011;53568;52.164;4.472;2022-09-23T06:21:56;13.06;;;13.06;;
66669;SDS011;53568;52.164;4.472;2022-09-23T06:24:22;12.95;;;12.95;;
66669;SDS011;53568;52.164;4.472;2022-09-23T06:26:47;12.85;;;12.85;;
66669;SDS011;53568;52.164;4.472;2022-09-23T06:29:13;13.04;;;13.04;;
66669;SDS011;53568;52.164;4.472;2022-09-23T06:31:38;12.95;;;12.95;;
66669;SDS011;53568;52.164;4.472;2022-09-23T06:34:07;13.19;;;13.19;;
66669;SDS011;53568;52.164;4.472;2022-09-23T06:36:34;12.76;;;12.76;;
66669;SDS011;53568;52.164;4.472;2022-09-23T06:39:00;12.98;;;12.98;;
66669;SDS011;53568;52.164;4.472;2022-09-23T06:41:26;12.69;;;12.69;;
66669;SDS011;53568;52.164;4.472;2022-09-23T06:43:52;12.97;;;12.97;;
66669;SDS011;53568;52.164;4.472;2022-09-23T06:46:17;13.41;;;13.41;;
66669;SDS011;53568;52.164;4.472;2022-09-23T06:48:45;13.93;;;13.93;;
66669;SDS011;53568;52.164;4.472;2022-09-23T06:51:11;13.77;;;13.77;;
66669;SDS011;53568;52.164;4.472;2022-09-23T06:53:47;13.92;;;13.92;;
66669;SDS011;53568;52.164;4.472;2022-09-23T06:56:13;14.07;;;14.07;;
66669;SDS011;53568;52.164;4.472;2022-09-23T06:58:41;13.85;;;13.85;;
66669;SDS011;53568;52.164;4.472;2022-09-23T07:01:08;13.83;;;13.83;;
66669;SDS011;53568;52.164;4.472;2022-09-23T07:03:36;13.89;;;13.89;;
66669;SDS011;53568;52.164;4.472;2022-09-23T07:06:03;14.96;;;14.96;;
66669;SDS011;53568;52.164;4.472;2022-09-23T07:08:31;14.58;;;14.58;;
66669;SDS011;53568;52.164;4.472;2022-09-23T07:11:01;14.86;;;14.86;;
66669;SDS011;53568;52.164;4.472;2022-09-23T07:13:30;14.77;;;14.76;;
66669;SDS011;53568;52.164;4.472;2022-09-23T07:15:57;14.69;;;14.69;;
66669;SDS011;53568;52.164;4.472;2022-09-23T07:18:26;14.74;;;14.74;;
66669;SDS011;53568;52.164;4.472;2022-09-23T07:20:54;14.42;;;14.42;;
66669;SDS011;53568;52.164;4.472;2022-09-23T07:23:23;14.39;;;14.39;;
66669;SDS011;53568;52.164;4.472;2022-09-23T07:25:50;14.72;;;14.72;;
66669;SDS011;53568;52.164;4.472;2022-09-23T07:28:17;14.95;;;14.95;;
66669;SDS011;53568;52.164;4.472;2022-09-23T07:30:43;14.78;;;14.78;;
66669;SDS011;53568;52.164;4.472;2022-09-23T07:33:09;14.57;;;14.57;;
66669;SDS011;53568;52.164;4.472;2022-09-23T07:35:37;14.02;;;14.02;;
66669;SDS011;53568;52.164;4.472;2022-09-23T07:38:05;14.49;;;14.49;;
66669;SDS011;53568;52.164;4.472;2022-09-23T07:40:32;14.33;;;14.33;;
66669;SDS011;53568;52.164;4.472;2022-09-23T07:42:57;14.63;;;14.63;;
66669;SDS011;53568;52.164;4.472;2022-09-23T07:45:23;14.67;;;14.67;;
66669;SDS011;53568;52.164;4.472;2022-09-23T07:47:52;14.65;;;14.65;;
66669;SDS011;53568;52.164;4.472;2022-09-23T07:50:19;14.95;;;14.95;;
66669;SDS011;53568;52.164;4.472;2022-09-23T07:52:46;15.30;;;15.30;;
66669;SDS011;53568;52.164;4.472;2022-09-23T07:55:14;15.26;;;15.26;;
66669;SDS011;53568;52.164;4.472;2022-09-23T07:57:39;15.55;;;15.55;;
66669;SDS011;53568;52.164;4.472;2022-09-23T08:00:05;20.17;;;20.11;;
66669;SDS011;53568;52.164;4.472;2022-09-23T08:02:31;17.00;;;17.00;;
66669;SDS011;53568;52.164;4.472;2022-09-23T08:04:56;15.45;;;15.45;;
66669;SDS011;53568;52.164;4.472;2022-09-23T08:07:22;15.25;;;15.25;;
66669;SDS011;53568;52.164;4.472;2022-09-23T08:09:48;16.23;;;16.23;;
66669;SDS011;53568;52.164;4.472;2022-09-23T08:12:14;15.84;;;15.84;;
66669;SDS011;53568;52.164;4.472;2022-09-23T08:14:42;16.01;;;16.01;;
66669;SDS011;53568;52.164;4.472;2022-09-23T08:17:08;15.50;;;15.50;;
66669;SDS011;53568;52.164;4.472;2022-09-23T08:19:35;15.57;;;15.57;;
66669;SDS011;53568;52.164;4.472;2022-09-23T08:22:00;15.77;;;15.77;;
66669;SDS011;53568;52.164;4.472;2022-09-23T08:24:26;15.71;;;15.71;;
66669;SDS011;53568;52.164;4.472;2022-09-23T08:26:52;16.07;;;16.07;;
66669;SDS011;53568;52.164;4.472;2022-09-23T08:29:20;16.39;;;16.39;;
66669;SDS011;53568;52.164;4.472;2022-09-23T08:31:47;15.78;;;15.78;;
66669;SDS011;53568;52.164;4.472;2022-09-23T08:34:15;15.94;;;15.94;;
66669;SDS011;53568;52.164;4.472;2022-09-23T08:36:42;15.44;;;15.44;;
66669;SDS011;53568;52.164;4.472;2022-09-23T08:39:08;15.69;;;15.69;;
66669;SDS011;53568;52.164;4.472;2022-09-23T08:44:31;16.37;;;16.37;;
66669;SDS011;53568;52.164;4.472;2022-09-23T08:49:41;15.66;;;15.66;;
66669;SDS011;53568;52.164;4.472;2022-09-23T08:52:22;15.73;;;15.73;;
66669;SDS011;53568;52.164;4.472;2022-09-23T08:54:58;15.72;;;15.72;;
66669;SDS011;53568;52.164;4.472;2022-09-23T08:57:29;16.11;;;16.11;;
66669;SDS011;53568;52.164;4.472;2022-09-23T09:00:04;15.83;;;15.82;;
66669;SDS011;53568;52.164;4.472;2022-09-23T09:02:30;16.35;;;16.34;;
66669;SDS011;53568;52.164;4.472;2022-09-23T09:05:02;15.34;;;15.34;;
66669;SDS011;53568;52.164;4.472;2022-09-23T09:07:33;15.69;;;15.69;;
66669;SDS011;53568;52.164;4.472;2022-09-23T09:10:09;15.35;;;15.35;;
66669;SDS011;53568;52.164;4.472;2022-09-23T09:12:46;15.13;;;15.13;;
66669;SDS011;53568;52.164;4.472;2022-09-23T09:15:14;15.61;;;15.60;;
66669;SDS011;53568;52.164;4.472;2022-09-23T09:20:21;15.75;;;15.75;;
66669;SDS011;53568;52.164;4.472;2022-09-23T09:25:23;15.37;;;15.37;;
66669;SDS011;53568;52.164;4.472;2022-09-23T09:27:55;15.49;;;15.49;;
66669;SDS011;53568;52.164;4.472;2022-09-23T09:30:21;15.80;;;15.80;;
66669;SDS011;53568;52.164;4.472;2022-09-23T09:35:30;15.85;;;15.85;;
66669;SDS011;53568;52.164;4.472;2022-09-23T09:38:02;16.57;;;16.57;;
66669;SDS011;53568;52.164;4.472;2022-09-23T09:40:29;15.77;;;15.77;;
66669;SDS011;53568;52.164;4.472;2022-09-23T09:42:56;15.47;;;15.47;;
66669;SDS011;53568;52.164;4.472;2022-09-23T09:50:48;16.53;;;16.53;;
66669;SDS011;53568;52.164;4.472;2022-09-23T09:53:26;16.81;;;16.81;;
66669;SDS011;53568;52.164;4.472;2022-09-23T09:56:04;16.33;;;16.33;;
66669;SDS011;53568;52.164;4.472;2022-09-23T09:58:57;16.19;;;16.19;;
66669;SDS011;53568;52.164;4.472;2022-09-23T10:01:26;16.40;;;16.40;;
66669;SDS011;53568;52.164;4.472;2022-09-23T10:03:58;16.09;;;16.09;;
66669;SDS011;53568;52.164;4.472;2022-09-23T10:06:30;16.38;;;16.38;;
66669;SDS011;53568;52.164;4.472;2022-09-23T10:11:26;16.26;;;16.26;;
66669;SDS011;53568;52.164;4.472;2022-09-23T10:16:30;16.01;;;16.01;;
66669;SDS011;53568;52.164;4.472;2022-09-23T10:19:10;16.43;;;16.43;;
66669;SDS011;53568;52.164;4.472;2022-09-23T10:21:48;16.39;;;16.39;;
66669;SDS011;53568;52.164;4.472;2022-09-23T10:24:23;15.55;;;15.55;;
66669;SDS011;53568;52.164;4.472;2022-09-23T10:27:00;16.03;;;16.03;;
66669;SDS011;53568;52.164;4.472;2022-09-23T10:29:29;16.08;;;16.07;;
66669;SDS011;53568;52.164;4.472;2022-09-23T10:34:45;15.82;;;15.82;;
66669;SDS011;53568;52.164;4.472;2022-09-23T10:40:38;15.77;;;15.77;;
66669;SDS011;53568;52.164;4.472;2022-09-23T10:46:27;15.17;;;15.17;;
66669;SDS011;53568;52.164;4.472;2022-09-23T10:49:19;14.42;;;14.42;;
66669;SDS011;53568;52.164;4.472;2022-09-23T10:52:07;13.89;;;13.89;;
66669;SDS011;53568;52.164;4.472;2022-09-23T10:57:37;13.10;;;13.10;;
66669;SDS011;53568;52.164;4.472;2022-09-23T11:00:28;11.88;;;11.86;;
66669;SDS011;53568;52.164;4.472;2022-09-23T11:12:02;11.29;;;11.29;;
66669;SDS011;53568;52.164;4.472;2022-09-23T11:17:45;11.35;;;11.35;;
66669;SDS011;53568;52.164;4.472;2022-09-23T11:20:29;11.17;;;11.17;;
66669;SDS011;53568;52.164;4.472;2022-09-23T11:37:13;11.53;;;11.53;;
66669;SDS011;53568;52.164;4.472;2022-09-23T11:39:53;11.69;;;11.69;;
66669;SDS011;53568;52.164;4.472;2022-09-23T11:42:33;11.97;;;11.97;;
66669;SDS011;53568;52.164;4.472;2022-09-23T11:47:50;12.05;;;12.05;;
66669;SDS011;53568;52.164;4.472;2022-09-23T11:50:34;11.93;;;11.93;;
66669;SDS011;53568;52.164;4.472;2022-09-23T11:53:14;12.42;;;12.42;;
66669;SDS011;53568;52.164;4.472;2022-09-23T11:56:06;12.53;;;12.53;;
66669;SDS011;53568;52.164;4.472;2022-09-23T11:58:55;12.21;;;12.21;;
66669;SDS011;53568;52.164;4.472;2022-09-23T12:04:32;11.37;;;11.37;;
66669;SDS011;53568;52.164;4.472;2022-09-23T12:26:18;10.10;;;10.10;;
66669;SDS011;53568;52.164;4.472;2022-09-23T12:28:49;9.64;;;9.64;;
66669;SDS011;53568;52.164;4.472;2022-09-23T12:31:23;9.88;;;9.88;;
66669;SDS011;53568;52.164;4.472;2022-09-23T12:33:57;9.12;;;9.12;;
66669;SDS011;53568;52.164;4.472;2022-09-23T12:36:25;9.11;;;9.11;;
66669;SDS011;53568;52.164;4.472;2022-09-23T12:39:06;8.34;;;8.34;;
66669;SDS011;53568;52.164;4.472;2022-09-23T12:41:41;7.85;;;7.85;;
66669;SDS011;53568;52.164;4.472;2022-09-23T12:44:29;7.64;;;7.64;;
66669;SDS011;53568;52.164;4.472;2022-09-23T12:49:45;8.28;;;8.28;;
66669;SDS011;53568;52.164;4.472;2022-09-23T12:54:50;7.81;;;7.81;;
66669;SDS011;53568;52.164;4.472;2022-09-23T13:02:39;7.84;;;7.84;;
66669;SDS011;53568;52.164;4.472;2022-09-23T13:08:10;7.78;;;7.78;;
66669;SDS011;53568;52.164;4.472;2022-09-23T13:10:46;8.09;;;8.09;;
66669;SDS011;53568;52.164;4.472;2022-09-23T13:13:26;8.27;;;8.27;;
66669;SDS011;53568;52.164;4.472;2022-09-23T13:18:54;9.24;;;9.24;;
66669;SDS011;53568;52.164;4.472;2022-09-23T13:26:36;8.60;;;8.60;;
66669;SDS011;53568;52.164;4.472;2022-09-23T13:29:03;9.00;;;9.00;;
66669;SDS011;53568;52.164;4.472;2022-09-23T13:31:31;8.92;;;8.92;;
66669;SDS011;53568;52.164;4.472;2022-09-23T13:33:59;8.65;;;8.65;;
66669;SDS011;53568;52.164;4.472;2022-09-23T13:36:30;8.75;;;8.75;;
66669;SDS011;53568;52.164;4.472;2022-09-23T13:39:27;8.72;;;8.72;;
66669;SDS011;53568;52.164;4.472;2022-09-23T13:42:00;8.51;;;8.51;;
66669;SDS011;53568;52.164;4.472;2022-09-23T13:44:29;10.63;;;10.63;;
66669;SDS011;53568;52.164;4.472;2022-09-23T13:46:58;9.31;;;9.31;;
66669;SDS011;53568;52.164;4.472;2022-09-23T13:49:29;9.56;;;9.56;;
66669;SDS011;53568;52.164;4.472;2022-09-23T13:51:59;9.41;;;9.41;;
66669;SDS011;53568;52.164;4.472;2022-09-23T13:57:00;8.72;;;8.72;;
66669;SDS011;53568;52.164;4.472;2022-09-23T13:59:28;9.50;;;9.50;;
66669;SDS011;53568;52.164;4.472;2022-09-23T14:02:09;9.03;;;9.03;;
66669;SDS011;53568;52.164;4.472;2022-09-23T14:04:37;8.94;;;8.94;;
66669;SDS011;53568;52.164;4.472;2022-09-23T14:07:02;9.09;;;9.09;;
66669;SDS011;53568;52.164;4.472;2022-09-23T14:09:31;9.12;;;9.12;;
66669;SDS011;53568;52.164;4.472;2022-09-23T14:12:03;9.61;;;9.61;;
66669;SDS011;53568;52.164;4.472;2022-09-23T14:14:30;9.13;;;9.13;;
66669;SDS011;53568;52.164;4.472;2022-09-23T14:17:01;9.32;;;9.32;;
66669;SDS011;53568;52.164;4.472;2022-09-23T14:19:28;8.89;;;8.89;;
66669;SDS011;53568;52.164;4.472;2022-09-23T14:21:56;9.08;;;9.08;;
66669;SDS011;53568;52.164;4.472;2022-09-23T14:24:30;9.38;;;9.38;;
66669;SDS011;53568;52.164;4.472;2022-09-23T14:27:00;10.02;;;10.02;;
66669;SDS011;53568;52.164;4.472;2022-09-23T14:29:31;9.32;;;9.32;;
66669;SDS011;53568;52.164;4.472;2022-09-23T14:32:21;9.76;;;9.76;;
66669;SDS011;53568;52.164;4.472;2022-09-23T14:34:49;9.78;;;9.78;;
66669;SDS011;53568;52.164;4.472;2022-09-23T14:40:15;9.11;;;9.11;;
66669;SDS011;53568;52.164;4.472;2022-09-23T14:42:45;9.38;;;9.38;;
66669;SDS011;53568;52.164;4.472;2022-09-23T14:45:17;9.39;;;9.39;;
66669;SDS011;53568;52.164;4.472;2022-09-23T14:47:47;9.95;;;9.95;;
66669;SDS011;53568;52.164;4.472;2022-09-23T14:50:20;9.86;;;9.86;;
66669;SDS011;53568;52.164;4.472;2022-09-23T14:53:49;10.67;;;10.67;;
66669;SDS011;53568;52.164;4.472;2022-09-23T15:03:51;13.88;;;13.88;;
66669;SDS011;53568;52.164;4.472;2022-09-23T15:06:18;12.75;;;12.75;;
66669;SDS011;53568;52.164;4.472;2022-09-23T15:08:47;13.44;;;13.44;;
66669;SDS011;53568;52.164;4.472;2022-09-23T15:11:14;13.53;;;13.53;;
66669;SDS011;53568;52.164;4.472;2022-09-23T15:13:40;14.15;;;14.15;;
66669;SDS011;53568;52.164;4.472;2022-09-23T15:16:11;14.45;;;14.45;;
66669;SDS011;53568;52.164;4.472;2022-09-23T15:18:41;34.29;;;34.05;;
66669;SDS011;53568;52.164;4.472;2022-09-23T15:21:14;32.99;;;32.93;;
66669;SDS011;53568;52.164;4.472;2022-09-23T15:26:10;16.50;;;16.45;;
66669;SDS011;53568;52.164;4.472;2022-09-23T15:28:39;13.79;;;13.79;;
66669;SDS011;53568;52.164;4.472;2022-09-23T15:31:05;14.02;;;14.02;;
66669;SDS011;53568;52.164;4.472;2022-09-23T15:33:33;14.55;;;14.55;;
66669;SDS011;53568;52.164;4.472;2022-09-23T15:35:59;14.13;;;14.09;;
66669;SDS011;53568;52.164;4.472;2022-09-23T15:38:24;14.33;;;14.33;;
66669;SDS011;53568;52.164;4.472;2022-09-23T15:40:51;14.27;;;14.27;;
66669;SDS011;53568;52.164;4.472;2022-09-23T15:43:18;14.17;;;14.17;;
66669;SDS011;53568;52.164;4.472;2022-09-23T15:45:51;13.70;;;13.70;;
66669;SDS011;53568;52.164;4.472;2022-09-23T15:48:22;14.28;;;14.28;;
66669;SDS011;53568;52.164;4.472;2022-09-23T15:50:50;14.74;;;14.74;;
66669;SDS011;53568;52.164;4.472;2022-09-23T15:53:27;14.76;;;14.76;;
66669;SDS011;53568;52.164;4.472;2022-09-23T15:55:54;14.69;;;14.69;;
66669;SDS011;53568;52.164;4.472;2022-09-23T15:58:20;14.85;;;14.85;;
66669;SDS011;53568;52.164;4.472;2022-09-23T16:00:49;13.04;;;13.04;;
66669;SDS011;53568;52.164;4.472;2022-09-23T16:03:19;10.26;;;10.26;;
66669;SDS011;53568;52.164;4.472;2022-09-23T16:05:49;9.70;;;9.70;;
66669;SDS011;53568;52.164;4.472;2022-09-23T16:08:14;9.19;;;9.19;;
66669;SDS011;53568;52.164;4.472;2022-09-23T16:10:40;8.50;;;8.50;;
66669;SDS011;53568;52.164;4.472;2022-09-23T16:13:10;11.82;;;11.82;;
66669;SDS011;53568;52.164;4.472;2022-09-23T16:15:38;8.84;;;8.84;;
66669;SDS011;53568;52.164;4.472;2022-09-23T16:18:04;6.88;;;6.88;;
66669;SDS011;53568;52.164;4.472;2022-09-23T16:20:32;6.64;;;6.64;;
66669;SDS011;53568;52.164;4.472;2022-09-23T16:23:03;6.71;;;6.71;;
66669;SDS011;53568;52.164;4.472;2022-09-23T16:25:32;6.33;;;6.33;;
66669;SDS011;53568;52.164;4.472;2022-09-23T16:28:00;5.40;;;5.40;;
66669;SDS011;53568;52.164;4.472;2022-09-23T16:30:28;4.92;;;4.92;;
66669;SDS011;53568;52.164;4.472;2022-09-23T16:32:57;4.61;;;4.61;;
66669;SDS011;53568;52.164;4.472;2022-09-23T16:35:25;4.96;;;4.96;;
66669;SDS011;53568;52.164;4.472;2022-09-23T16:37:53;4.77;;;4.77;;
66669;SDS011;53568;52.164;4.472;2022-09-23T16:40:20;4.40;;;4.40;;
66669;SDS011;53568;52.164;4.472;2022-09-23T16:42:47;4.21;;;4.21;;
66669;SDS011;53568;52.164;4.472;2022-09-23T16:45:16;3.88;;;3.88;;
66669;SDS011;53568;52.164;4.472;2022-09-23T16:47:44;3.98;;;3.98;;
66669;SDS011;53568;52.164;4.472;2022-09-23T16:50:13;4.19;;;4.19;;
66669;SDS011;53568;52.164;4.472;2022-09-23T16:52:41;4.41;;;4.41;;
66669;SDS011;53568;52.164;4.472;2022-09-23T16:55:07;4.48;;;4.47;;
66669;SDS011;53568;52.164;4.472;2022-09-23T16:57:35;4.72;;;4.72;;
66669;SDS011;53568;52.164;4.472;2022-09-23T17:00:06;4.65;;;4.65;;
66669;SDS011;53568;52.164;4.472;2022-09-23T17:02:57;5.04;;;5.02;;
66669;SDS011;53568;52.164;4.472;2022-09-23T17:05:41;5.36;;;5.36;;
66669;SDS011;53568;52.164;4.472;2022-09-23T17:08:08;5.71;;;5.71;;
66669;SDS011;53568;52.164;4.472;2022-09-23T17:10:38;5.97;;;5.97;;
66669;SDS011;53568;52.164;4.472;2022-09-23T17:13:07;5.92;;;5.92;;
66669;SDS011;53568;52.164;4.472;2022-09-23T17:15:34;6.37;;;6.37;;
66669;SDS011;53568;52.164;4.472;2022-09-23T17:18:04;6.06;;;6.06;;
66669;SDS011;53568;52.164;4.472;2022-09-23T17:20:33;6.56;;;6.56;;
66669;SDS011;53568;52.164;4.472;2022-09-23T17:23:00;6.23;;;6.23;;
66669;SDS011;53568;52.164;4.472;2022-09-23T17:25:28;7.02;;;7.02;;
66669;SDS011;53568;52.164;4.472;2022-09-23T17:27:54;6.67;;;6.67;;
66669;SDS011;53568;52.164;4.472;2022-09-23T17:30:19;6.99;;;6.99;;
66669;SDS011;53568;52.164;4.472;2022-09-23T17:32:45;7.30;;;7.30;;
66669;SDS011;53568;52.164;4.472;2022-09-23T17:35:11;6.88;;;6.88;;
66669;SDS011;53568;52.164;4.472;2022-09-23T17:37:36;6.65;;;6.65;;
66669;SDS011;53568;52.164;4.472;2022-09-23T17:40:02;6.38;;;6.38;;